6WI1 weather

Winch Airfield
Wisconsin Rapids, Wisconsin, United States

Public forecast

Using degrees Fahrenheit for public forecast. Weather courtesy of forecast.io.

METAR (pilot weather report)

Closest report is Alexander Field South Wood County Airport, 8.7 nm (16.1 km) SSE. Retrieved 2019/08/24 16:54 UTC (37 minutes ago):

KISW 241654Z AUTO 13008G18KT 10SM BKN042 22/11 A3030 RMK AO2 SLP259 T02170111

TAF (pilot weather forecast)

Closest forecast is Central Wisconsin Airport, 19.9 nm (36.9 km) NNE. Retrieved 2019/08/24 12:42 UTC (5 hours ago):

TAF KCWA 241141Z 2412/2512 10004KT P6SM SKC FM241500 13007KT P6SM SCT045 FM250100 12003KT P6SM SKC FM250700 11003KT P6SM SCT150